Time;durP1;ratioP1;P1;durP2;ratioP2;P2;SDS_P1;SDS_P2;PMS_P1;PMS_P2;Temp;Humidity;BMP_temperature;BMP_pressure;BME280_temperature;BME280_humidity;BME280_pressure;Samples;Min_cycle;Max_cycle;Signal;HPM_P1;HPM_P2
2022/01/24 00:01:18;;;;;;;23.50;11.67;;;;;;;-5.10;100.00;95323.47;5090652;28;20209;-77
2022/01/24 00:03:47;;;;;;;21.53;10.93;;;;;;;-4.98;100.00;95314.22;5091236;28;20208;-77
2022/01/24 00:06:16;;;;;;;21.13;10.90;;;;;;;-5.02;100.00;95320.44;5091046;28;20782;-76
2022/01/24 00:08:46;;;;;;;24.83;11.77;;;;;;;-5.18;100.00;95330.81;5089962;28;20217;-76
2022/01/24 00:11:15;;;;;;;20.27;11.13;;;;;;;-5.25;100.00;95327.06;5090259;28;20205;-76
2022/01/24 00:16:47;;;;;;;21.60;11.50;;;;;;;-5.29;100.00;95330.75;5085542;28;20290;-75
2022/01/24 00:27:31;;;;;;;21.77;11.67;;;;;;;-5.28;100.00;95339.97;5086840;28;20309;-80
2022/01/24 00:30:00;;;;;;;22.70;12.07;;;;;;;-5.16;100.00;95341.63;5073915;28;20592;-76
2022/01/24 00:32:29;;;;;;;21.10;11.53;;;;;;;-5.16;100.00;95337.38;5090415;28;20201;-78
2022/01/24 00:34:56;;;;;;;22.73;11.57;;;;;;;-5.25;100.00;95343.06;5081615;28;20236;-78
2022/01/24 00:37:25;;;;;;;21.80;12.20;;;;;;;-5.32;100.00;95338.56;5076768;28;20201;-78
2022/01/24 00:39:55;;;;;;;24.73;12.13;;;;;;;-5.38;100.00;95337.25;5083779;28;20212;-77
2022/01/24 00:42:31;;;;;;;30.67;13.23;;;;;;;-5.28;100.00;95334.91;5073400;28;20284;-78
2022/01/24 00:45:11;;;;;;;31.17;15.97;;;;;;;-5.09;100.00;95342.84;5086112;28;20660;-78
2022/01/24 00:48:01;;;;;;;31.50;16.07;;;;;;;-4.97;100.00;95342.00;5070798;28;21030;-80
2022/01/24 00:53:31;;;;;;;24.70;13.37;;;;;;;-4.71;100.00;95346.03;5082488;28;20200;-78
2022/01/24 00:56:00;;;;;;;29.17;14.77;;;;;;;-4.63;100.00;95348.81;5090110;28;20667;-78
2022/01/24 00:58:27;;;;;;;32.13;14.93;;;;;;;-4.58;100.00;95351.03;5089198;28;20199;-78
2022/01/24 01:00:55;;;;;;;30.93;15.03;;;;;;;-4.86;100.00;95357.25;5076754;28;20223;-77
2022/01/24 01:03:24;;;;;;;29.53;13.57;;;;;;;-4.89;100.00;95349.84;5077088;28;20296;-77
2022/01/24 01:06:04;;;;;;;29.07;14.27;;;;;;;-4.96;100.00;95347.88;5070435;28;20671;-77
2022/01/24 01:19:33;;;;;;;30.73;15.43;;;;;;;-4.44;100.00;95350.84;5052487;28;20571;-85
2022/01/24 01:22:01;;;;;;;32.47;15.27;;;;;;;-4.38;100.00;95355.47;5052524;28;20583;-85
2022/01/24 01:24:34;;;;;;;28.03;13.37;;;;;;;-4.43;100.00;95349.13;5052276;28;20198;-85
2022/01/24 01:27:08;;;;;;;28.37;15.37;;;;;;;-4.52;100.00;95348.06;5070753;28;20295;-87
2022/01/24 01:29:47;;;;;;;22.23;12.63;;;;;;;-4.64;100.00;95326.09;5099654;28;20221;-87
2022/01/24 01:32:22;;;;;;;26.40;13.30;;;;;;;-4.37;100.00;95353.75;5094996;28;20240;-88
2022/01/24 01:35:08;;;;;;;27.17;14.27;;;;;;;-4.25;100.00;95355.41;5100351;28;20211;-84
2022/01/24 01:55:10;;;;;;;24.90;13.23;;;;;;;-4.77;100.00;95346.47;5076675;28;20199;-84
2022/01/24 01:57:39;;;;;;;25.63;13.43;;;;;;;-4.61;100.00;95346.97;5071871;28;20682;-85
2022/01/24 02:00:13;;;;;;;26.77;13.97;;;;;;;-4.65;100.00;95342.25;5064280;28;20201;-85
2022/01/24 02:02:43;;;;;;;28.73;13.43;;;;;;;-4.82;100.00;95342.63;5067462;28;20200;-86
2022/01/24 02:05:11;;;;;;;27.83;13.30;;;;;;;-4.87;100.00;95344.66;5077323;28;20228;-83
2022/01/24 02:07:48;;;;;;;25.00;13.83;;;;;;;-4.97;100.00;95346.25;5095788;28;20228;-82
2022/01/24 02:10:17;;;;;;;27.00;14.30;;;;;;;-5.02;100.00;95345.75;5079878;28;20201;-82
2022/01/24 02:12:45;;;;;;;29.20;13.50;;;;;;;-5.07;100.00;95346.06;5065210;28;20201;-81
2022/01/24 02:15:22;;;;;;;25.53;13.90;;;;;;;-4.94;100.00;95349.38;5081408;28;20285;-81
2022/01/24 02:18:01;;;;;;;24.70;13.50;;;;;;;-4.76;100.00;95343.00;5079315;28;20643;-81
2022/01/24 02:21:04;;;;;;;29.93;15.23;;;;;;;-4.67;100.00;95347.41;5082537;28;20236;-81
2022/01/24 02:23:40;;;;;;;27.23;15.17;;;;;;;-4.58;100.00;95343.41;5084382;28;20199;-81
2022/01/24 02:26:11;;;;;;;27.27;14.27;;;;;;;-4.50;100.00;95358.88;5076400;28;20297;-81
2022/01/24 02:28:50;;;;;;;31.20;16.50;;;;;;;-4.44;100.00;95353.38;5093517;28;20608;-80
2022/01/24 02:31:38;;;;;;;38.40;17.10;;;;;;;-4.45;100.00;95361.91;5075302;28;20200;-84
2022/01/24 02:34:20;;;;;;;32.93;16.87;;;;;;;-4.65;100.00;95360.00;5094730;28;20240;-83
2022/01/24 02:36:48;;;;;;;29.97;15.40;;;;;;;-4.77;100.00;95341.41;5076467;28;20555;-83
2022/01/24 02:39:43;;;;;;;29.77;14.67;;;;;;;-4.53;100.00;95359.09;5085607;28;20332;-83
2022/01/24 02:50:42;;;;;;;30.50;15.93;;;;;;;-4.28;100.00;95363.25;5069836;28;20255;-84
2022/01/24 02:53:10;;;;;;;28.13;15.03;;;;;;;-4.24;100.00;95369.72;5073567;28;20181;-85
2022/01/24 02:55:40;;;;;;;29.70;16.07;;;;;;;-4.36;100.00;95373.94;5077879;28;20204;-84
2022/01/24 02:58:08;;;;;;;30.93;15.60;;;;;;;-4.37;100.00;95385.00;5094389;28;20959;-84
2022/01/24 03:00:38;;;;;;;33.43;17.27;;;;;;;-4.51;100.00;95379.28;5087731;28;20248;-84
2022/01/24 03:03:07;;;;;;;28.67;15.33;;;;;;;-4.58;100.00;95391.59;5086747;28;20555;-83
2022/01/24 03:05:35;;;;;;;27.87;15.00;;;;;;;-4.68;100.00;95396.50;5093680;28;20300;-84
2022/01/24 03:08:25;;;;;;;25.50;14.40;;;;;;;-4.69;100.00;95397.41;5074077;28;20216;-84
2022/01/24 03:10:57;;;;;;;29.30;15.03;;;;;;;-4.78;100.00;95402.31;5073817;28;20251;-84
2022/01/24 03:14:08;;;;;;;29.10;15.07;;;;;;;-4.72;100.00;95395.09;5075199;28;20566;-86
2022/01/24 03:16:39;;;;;;;30.13;14.60;;;;;;;-4.62;100.00;95405.41;5071583;28;20209;-77
2022/01/24 03:19:06;;;;;;;32.00;16.20;;;;;;;-4.56;100.00;95394.03;5078070;28;20250;-78
2022/01/24 03:21:34;;;;;;;31.17;15.73;;;;;;;-4.51;100.00;95386.91;5083434;28;20204;-79
2022/01/24 03:24:03;;;;;;;31.23;16.37;;;;;;;-4.46;100.00;95397.50;5084488;28;20205;-77
2022/01/24 03:26:32;;;;;;;37.90;19.57;;;;;;;-4.46;100.00;95403.41;5089757;28;20200;-77
2022/01/24 03:29:01;;;;;;;42.40;20.53;;;;;;;-4.38;100.00;95407.91;5080458;28;20220;-78
2022/01/24 03:31:29;;;;;;;44.03;20.90;;;;;;;-4.36;100.00;95411.16;5091236;28;20208;-78
2022/01/24 03:33:58;;;;;;;43.57;21.43;;;;;;;-4.44;100.00;95410.91;5086940;28;20247;-78
2022/01/24 03:36:29;;;;;;;45.90;21.57;;;;;;;-4.64;100.00;95418.19;5075322;28;20648;-83
2022/01/24 03:38:58;;;;;;;39.87;21.00;;;;;;;-4.74;100.00;95412.16;5073067;28;20254;-81
2022/01/24 03:41:26;;;;;;;43.30;20.57;;;;;;;-4.63;100.00;95409.66;5073098;28;20208;-82
2022/01/24 03:44:03;;;;;;;41.07;20.50;;;;;;;-4.64;100.00;95418.19;5083056;28;20196;-84
2022/01/24 03:46:46;;;;;;;41.60;20.87;;;;;;;-4.72;100.00;95415.38;5088532;28;20209;-84
2022/01/24 03:49:45;;;;;;;49.40;21.87;;;;;;;-4.63;100.00;95429.94;5079375;28;20232;-83
2022/01/24 03:52:10;;;;;;;43.23;19.67;;;;;;;-4.61;100.00;95429.81;5069682;28;20598;-84
2022/01/24 03:54:38;;;;;;;37.57;18.77;;;;;;;-4.46;100.00;95428.75;5069783;28;20196;-84
2022/01/24 03:57:14;;;;;;;36.57;17.70;;;;;;;-4.37;100.00;95434.91;5079024;28;20204;-84
2022/01/24 03:59:43;;;;;;;30.10;15.97;;;;;;;-4.29;100.00;95435.97;5074625;28;20667;-84
2022/01/24 04:02:13;;;;;;;31.40;16.87;;;;;;;-4.20;100.00;95445.47;5084058;28;20665;-81
2022/01/24 04:04:42;;;;;;;33.20;17.37;;;;;;;-4.15;100.00;95438.34;5078870;28;20287;-83
2022/01/24 04:07:10;;;;;;;31.03;15.70;;;;;;;-4.10;100.00;95445.63;5090920;28;20200;-77
2022/01/24 04:09:40;;;;;;;28.93;15.57;;;;;;;-4.00;100.00;95446.59;5089746;28;20301;-78
2022/01/24 04:12:10;;;;;;;31.63;14.27;;;;;;;-3.95;100.00;95447.06;5090215;28;20205;-77
2022/01/24 04:14:41;;;;;;;29.83;14.37;;;;;;;-3.87;100.00;95449.06;5084273;28;20688;-77
2022/01/24 04:17:23;;;;;;;27.93;13.57;;;;;;;-3.86;100.00;95468.41;5083422;28;20200;-76
2022/01/24 04:22:48;;;;;;;24.33;13.60;;;;;;;-3.91;100.00;95468.75;5090967;28;20208;-76
2022/01/24 04:25:22;;;;;;;28.27;13.80;;;;;;;-3.98;100.00;95472.66;5084372;28;20213;-85
2022/01/24 04:27:52;;;;;;;28.30;14.73;;;;;;;-4.00;100.00;95477.03;5089531;28;20231;-71
2022/01/24 04:30:21;;;;;;;27.13;14.80;;;;;;;-4.03;100.00;95480.59;5087227;28;20284;-72
2022/01/24 04:32:52;;;;;;;31.23;16.27;;;;;;;-4.05;100.00;95482.44;5077535;28;20586;-73
2022/01/24 04:35:19;;;;;;;26.33;14.33;;;;;;;-4.13;100.00;95489.00;5073431;28;20193;-71
2022/01/24 04:37:46;;;;;;;22.07;12.30;;;;;;;-4.41;100.00;95487.56;5089262;28;20644;-73
2022/01/24 04:40:16;;;;;;;25.73;13.67;;;;;;;-4.68;100.00;95486.94;5083134;28;20212;-71
2022/01/24 04:42:51;;;;;;;23.73;12.63;;;;;;;-4.65;100.00;95499.41;5089699;28;20204;-71
2022/01/24 04:45:39;;;;;;;26.47;14.03;;;;;;;-4.66;100.00;95498.59;5089506;28;20292;-72
2022/01/24 04:51:14;;;;;;;25.63;12.80;;;;;;;-4.59;100.00;95504.84;5032659;28;20267;-72
2022/01/24 04:54:15;;;;;;;24.23;12.93;;;;;;;-4.49;100.00;95516.91;5080740;28;20200;-71
2022/01/24 04:56:43;;;;;;;25.87;12.43;;;;;;;-4.51;100.00;95504.34;5089075;28;21038;-74
2022/01/24 04:59:11;;;;;;;25.20;13.00;;;;;;;-4.51;100.00;95511.13;5089077;28;20240;-72
2022/01/24 05:01:39;;;;;;;28.80;12.30;;;;;;;-4.60;100.00;95508.31;5077948;28;20205;-72
2022/01/24 05:04:08;;;;;;;24.70;12.87;;;;;;;-4.65;100.00;95519.69;5060452;28;20201;-72
2022/01/24 05:06:35;;;;;;;28.50;12.43;;;;;;;-4.66;100.00;95525.66;5080167;28;20212;-72
2022/01/24 05:09:04;;;;;;;21.07;12.30;;;;;;;-4.66;100.00;95518.88;5088365;28;20225;-72
2022/01/24 05:11:38;;;;;;;19.93;11.17;;;;;;;-4.62;100.00;95532.94;5088853;28;20273;-73
2022/01/24 05:25:07;;;;;;;19.97;10.27;;;;;;;-4.59;100.00;95553.03;5088600;28;20253;-72
2022/01/24 05:27:36;;;;;;;21.67;11.33;;;;;;;-4.70;100.00;95544.53;5088301;28;20299;-73
2022/01/24 05:30:05;;;;;;;22.87;10.80;;;;;;;-4.56;99.01;95563.88;5086355;28;20327;-72
2022/01/24 05:32:33;;;;;;;20.20;11.20;;;;;;;-4.57;98.29;95575.75;5089618;28;20269;-72
2022/01/24 05:35:02;;;;;;;23.07;11.50;;;;;;;-4.62;98.86;95582.88;5088040;28;20243;-72
2022/01/24 05:37:31;;;;;;;22.87;11.03;;;;;;;-4.63;98.13;95586.31;5087712;28;20250;-80
2022/01/24 05:40:00;;;;;;;18.60;10.17;;;;;;;-4.60;97.19;95581.84;5088635;28;20707;-72
2022/01/24 05:42:29;;;;;;;19.33;10.00;;;;;;;-4.62;97.81;95587.94;5089135;28;20680;-72
2022/01/24 05:44:58;;;;;;;18.97;10.17;;;;;;;-4.66;97.57;95584.78;5088619;28;20201;-73
2022/01/24 05:47:26;;;;;;;16.83;8.93;;;;;;;-4.68;97.67;95589.16;5081392;28;20211;-72
2022/01/24 05:49:53;;;;;;;15.80;8.83;;;;;;;-4.78;96.31;95585.59;5081637;28;20224;-73
2022/01/24 05:52:23;;;;;;;13.60;7.67;;;;;;;-4.82;95.26;95604.44;5088470;28;20615;-72
2022/01/24 05:54:51;;;;;;;14.30;8.00;;;;;;;-4.80;94.70;95597.56;5089070;28;20652;-72
2022/01/24 05:57:20;;;;;;;12.20;7.13;;;;;;;-4.75;94.00;95607.41;5087854;28;20211;-73
2022/01/24 05:59:48;;;;;;;14.03;7.47;;;;;;;-4.79;94.56;95604.25;5088838;28;20699;-74
2022/01/24 06:02:16;;;;;;;11.63;7.00;;;;;;;-4.73;93.11;95615.69;5088441;28;20211;-73
2022/01/24 06:04:44;;;;;;;11.80;6.73;;;;;;;-4.84;93.10;95616.41;5088592;28;20286;-72
2022/01/24 06:07:12;;;;;;;12.33;7.07;;;;;;;-4.77;93.15;95624.44;5087841;28;20211;-72
2022/01/24 06:09:41;;;;;;;12.73;6.77;;;;;;;-4.79;92.89;95637.19;5087797;28;20228;-71
2022/01/24 06:12:11;;;;;;;12.33;6.83;;;;;;;-4.72;93.99;95635.06;5074393;28;20199;-72
2022/01/24 06:14:39;;;;;;;14.30;7.33;;;;;;;-4.57;94.83;95645.94;5083416;28;20235;-72
2022/01/24 06:17:06;;;;;;;14.60;7.77;;;;;;;-4.50;93.62;95647.94;5073065;28;20619;-72
2022/01/24 06:19:34;;;;;;;13.33;7.67;;;;;;;-4.39;94.07;95657.38;5070771;28;20192;-77
2022/01/24 06:22:03;;;;;;;15.23;7.83;;;;;;;-4.28;93.34;95654.94;5073321;28;20205;-77
2022/01/24 06:24:31;;;;;;;15.03;7.60;;;;;;;-4.22;92.81;95654.53;5068199;28;20200;-74
2022/01/24 06:27:00;;;;;;;14.40;8.20;;;;;;;-4.22;92.65;95659.59;5061552;28;20668;-74
2022/01/24 06:29:28;;;;;;;18.17;10.97;;;;;;;-4.14;92.23;95662.41;5085381;28;20228;-72
2022/01/24 06:31:57;;;;;;;12.80;7.03;;;;;;;-4.14;91.05;95663.25;5088169;28;20205;-72
2022/01/24 06:34:27;;;;;;;14.90;7.30;;;;;;;-4.10;91.20;95664.63;5087682;28;20240;-72
2022/01/24 06:36:56;;;;;;;14.07;7.50;;;;;;;-4.09;90.24;95673.06;5080382;28;20240;-72
2022/01/24 06:39:25;;;;;;;12.73;7.67;;;;;;;-4.18;90.64;95674.50;5077851;28;20201;-76
2022/01/24 06:42:07;;;;;;;12.33;7.07;;;;;;;-4.14;90.99;95672.56;5079885;28;20200;-75
2022/01/24 06:44:37;;;;;;;11.93;7.17;;;;;;;-4.20;91.67;95671.25;5087807;28;20238;-72
2022/01/24 06:47:06;;;;;;;14.43;7.47;;;;;;;-4.13;91.32;95671.66;5075687;28;20614;-73
2022/01/24 06:49:37;;;;;;;17.23;10.60;;;;;;;-4.05;89.78;95677.03;5091071;28;20224;-76
2022/01/24 06:52:06;;;;;;;16.23;10.30;;;;;;;-3.98;89.51;95683.28;5093103;28;20207;-76
2022/01/24 06:54:35;;;;;;;15.03;7.93;;;;;;;-3.91;88.42;95681.97;5084610;28;20201;-75
2022/01/24 06:57:02;;;;;;;15.70;8.03;;;;;;;-3.95;88.07;95667.84;5090681;28;20296;-75
2022/01/24 06:59:30;;;;;;;13.23;7.37;;;;;;;-3.76;87.43;95685.19;5090805;28;20205;-76
2022/01/24 07:02:00;;;;;;;11.53;6.47;;;;;;;-3.80;86.79;95673.59;5091283;28;20208;-76
2022/01/24 07:04:28;;;;;;;12.33;6.33;;;;;;;-3.63;85.30;95694.38;5091586;28;20205;-76
2022/01/24 07:06:58;;;;;;;13.47;7.27;;;;;;;-3.56;86.02;95697.31;5090756;28;20205;-72
2022/01/24 07:09:26;;;;;;;11.80;6.97;;;;;;;-3.59;84.75;95698.34;5091340;28;20221;-75
2022/01/24 07:11:55;;;;;;;14.03;6.90;;;;;;;-3.65;84.70;95703.03;5092061;28;20960;-73
2022/01/24 07:14:26;;;;;;;10.80;6.47;;;;;;;-3.73;84.28;95706.09;5092329;28;20197;-75
2022/01/24 07:17:11;;;;;;;12.80;6.90;;;;;;;-3.81;85.28;95708.31;5090223;28;20200;-73
2022/01/24 07:19:42;;;;;;;12.87;7.33;;;;;;;-3.85;86.04;95696.78;5091623;28;20199;-74
2022/01/24 07:22:10;;;;;;;10.03;6.40;;;;;;;-3.76;86.50;95708.03;5091959;28;20196;-74
2022/01/24 07:24:39;;;;;;;10.77;6.80;;;;;;;-3.76;86.19;95713.94;5084915;28;20640;-74
2022/01/24 07:27:07;;;;;;;15.23;7.47;;;;;;;-3.59;85.74;95718.66;5091867;28;20232;-78
2022/01/24 07:29:35;;;;;;;15.10;8.17;;;;;;;-3.61;87.32;95717.94;5090347;28;20310;-78
2022/01/24 07:32:04;;;;;;;14.83;8.43;;;;;;;-3.55;86.41;95709.09;5081038;28;20220;-78
2022/01/24 07:34:34;;;;;;;12.97;7.33;;;;;;;-3.41;88.17;95724.19;5091997;28;20228;-79
2022/01/24 07:37:04;;;;;;;13.97;7.53;;;;;;;-3.31;87.28;95719.25;5091701;28;20205;-78
2022/01/24 07:39:33;;;;;;;12.53;7.47;;;;;;;-3.21;86.73;95730.41;5083258;28;20276;-76
2022/01/24 07:42:14;;;;;;;12.63;7.67;;;;;;;-3.13;86.32;95738.31;5085238;28;20208;-76
2022/01/24 07:44:42;;;;;;;14.93;7.90;;;;;;;-3.31;86.92;95744.66;5072165;28;20208;-77
2022/01/24 07:47:12;;;;;;;14.17;8.23;;;;;;;-3.20;86.86;95745.53;5072725;28;20202;-78
2022/01/24 07:49:40;;;;;;;15.27;7.93;;;;;;;-3.24;86.89;95749.22;5071677;28;20773;-77
2022/01/24 07:52:11;;;;;;;17.37;9.27;;;;;;;-3.15;86.72;95758.75;5073579;28;20280;-77
2022/01/24 07:54:39;;;;;;;21.07;9.40;;;;;;;-3.08;87.00;95759.13;5075531;28;20244;-78
2022/01/24 07:57:07;;;;;;;15.73;8.10;;;;;;;-3.16;86.80;95761.38;5077550;28;20232;-76
2022/01/24 07:59:36;;;;;;;15.27;7.83;;;;;;;-3.23;87.12;95762.75;5076420;28;20277;-77
2022/01/24 08:02:04;;;;;;;17.43;8.30;;;;;;;-3.15;88.06;95779.09;5090578;28;20236;-77
2022/01/24 08:04:31;;;;;;;24.23;10.73;;;;;;;-3.28;89.13;95764.78;5091264;28;20660;-77
2022/01/24 08:06:58;;;;;;;19.93;10.87;;;;;;;-3.42;90.36;95764.94;5089965;28;20295;-76
2022/01/24 08:09:27;;;;;;;21.10;10.93;;;;;;;-3.57;91.29;95756.63;5084610;28;20308;-77
2022/01/24 08:11:54;;;;;;;23.67;12.00;;;;;;;-3.42;92.02;95763.19;5082930;28;20660;-78
2022/01/24 08:14:22;;;;;;;16.97;9.37;;;;;;;-3.34;91.90;95763.47;5084792;28;20208;-77
2022/01/24 08:16:49;;;;;;;14.20;8.07;;;;;;;-3.45;89.44;95771.03;5088732;28;20721;-77
2022/01/24 08:19:17;;;;;;;15.40;8.20;;;;;;;-3.50;90.19;95765.47;5083166;28;20707;-77
2022/01/24 08:21:45;;;;;;;17.80;9.67;;;;;;;-3.59;91.15;95774.53;5090511;28;20201;-76
2022/01/24 08:24:12;;;;;;;17.70;9.23;;;;;;;-3.58;90.87;95771.06;5083621;28;20295;-76
2022/01/24 08:26:41;;;;;;;16.60;9.37;;;;;;;-3.42;91.00;95775.91;5090454;28;20291;-78
2022/01/24 08:29:09;;;;;;;17.90;9.40;;;;;;;-3.49;90.23;95785.66;5089201;28;20316;-76
2022/01/24 08:31:38;;;;;;;21.70;10.87;;;;;;;-3.56;91.17;95778.59;5084398;28;20303;-78
2022/01/24 08:34:06;;;;;;;18.50;10.13;;;;;;;-3.58;91.89;95786.28;5082301;28;20741;-78
2022/01/24 08:36:33;;;;;;;19.70;10.03;;;;;;;-3.36;91.02;95795.81;5090611;28;20206;-79
2022/01/24 08:39:06;;;;;;;19.63;10.13;;;;;;;-3.25;92.05;95800.97;5082914;28;20201;-76
2022/01/24 08:41:44;;;;;;;20.70;10.40;;;;;;;-3.06;91.11;95797.97;5089468;28;20207;-77
2022/01/24 08:44:21;;;;;;;18.43;10.23;;;;;;;-2.96;88.83;95811.63;5078746;28;20581;-77
2022/01/24 08:46:51;;;;;;;17.90;9.67;;;;;;;-2.95;88.90;95811.56;5085092;28;20319;-77
2022/01/24 08:49:19;;;;;;;15.73;8.87;;;;;;;-2.91;87.27;95805.31;5083049;28;20221;-76
2022/01/24 08:51:47;;;;;;;17.43;9.53;;;;;;;-2.89;86.02;95813.63;5089743;28;20208;-76
2022/01/24 08:54:14;;;;;;;16.73;9.50;;;;;;;-2.89;85.70;95816.19;5084730;28;20204;-76
2022/01/24 08:56:42;;;;;;;18.03;9.83;;;;;;;-2.84;86.65;95820.13;5084205;28;20216;-76
2022/01/24 08:59:09;;;;;;;19.53;10.07;;;;;;;-3.01;85.79;95811.97;5091171;28;20793;-76
2022/01/24 09:01:38;;;;;;;15.83;9.17;;;;;;;-3.03;85.57;95815.53;5091444;28;20196;-76
2022/01/24 09:04:06;;;;;;;15.23;8.60;;;;;;;-2.97;84.73;95818.44;5091093;28;20208;-76
2022/01/24 09:06:33;;;;;;;17.70;9.10;;;;;;;-2.97;86.62;95812.53;5084103;28;20232;-76
2022/01/24 09:09:02;;;;;;;14.33;8.73;;;;;;;-2.89;84.98;95823.81;5084124;28;20203;-77
2022/01/24 09:11:31;;;;;;;16.33;8.57;;;;;;;-2.93;84.83;95817.31;5083735;28;20300;-76
2022/01/24 09:13:58;;;;;;;16.17;8.93;;;;;;;-2.89;84.53;95816.19;5083416;28;20646;-76
2022/01/24 09:16:26;;;;;;;17.10;9.33;;;;;;;-2.73;84.78;95818.47;5078183;28;20213;-76
2022/01/24 09:18:55;;;;;;;16.33;9.53;;;;;;;-2.69;84.82;95821.59;5090802;28;20197;-76
2022/01/24 09:21:24;;;;;;;15.20;8.33;;;;;;;-2.55;83.41;95829.88;5076956;28;20684;-76
2022/01/24 09:23:51;;;;;;;12.63;7.50;;;;;;;-2.58;81.60;95834.38;5090756;28;20663;-76
2022/01/24 09:26:19;;;;;;;17.30;8.00;;;;;;;-2.51;80.78;95841.44;5084282;28;20204;-76
2022/01/24 09:28:46;;;;;;;12.87;7.27;;;;;;;-2.38;81.53;95844.75;5088048;28;20276;-76
2022/01/24 09:31:13;;;;;;;12.90;7.40;;;;;;;-2.31;81.07;95837.50;5079924;28;20314;-76
2022/01/24 09:33:40;;;;;;;15.37;8.57;;;;;;;-2.14;80.31;95832.00;5081299;28;20339;-76
2022/01/24 09:36:10;;;;;;;18.83;10.67;;;;;;;-2.04;81.72;95832.13;5077201;28;20270;-76
2022/01/24 09:38:37;;;;;;;23.40;11.63;;;;;;;-1.90;81.98;95832.72;5073241;28;20254;-76
2022/01/24 09:41:08;;;;;;;22.03;12.07;;;;;;;-1.69;82.17;95829.50;5090691;28;20207;-75
2022/01/24 09:43:36;;;;;;;20.40;11.37;;;;;;;-1.76;79.91;95834.28;5090278;28;20200;-76
2022/01/24 09:46:04;;;;;;;20.40;10.07;;;;;;;-1.60;78.51;95829.66;5089450;28;20209;-77
2022/01/24 09:48:31;;;;;;;22.13;10.27;;;;;;;-1.64;79.18;95822.34;5083938;28;20652;-76
2022/01/24 09:50:58;;;;;;;16.53;9.87;;;;;;;-1.77;78.54;95840.28;5080967;28;20317;-76
2022/01/24 09:53:27;;;;;;;19.37;10.50;;;;;;;-1.52;78.16;95832.44;5069862;28;20215;-76
2022/01/24 09:55:55;;;;;;;17.40;9.83;;;;;;;-1.29;78.13;95825.59;5083708;28;20202;-76
2022/01/24 09:58:22;;;;;;;20.53;10.17;;;;;;;-0.89;76.01;95826.69;5076543;28;20204;-76
2022/01/24 10:00:49;;;;;;;20.47;10.50;;;;;;;-0.77;73.47;95830.84;5090706;28;20283;-76
2022/01/24 10:03:16;;;;;;;19.73;8.83;;;;;;;-0.90;71.44;95827.63;5070177;28;20204;-76
2022/01/24 10:05:51;;;;;;;15.30;8.53;;;;;;;-1.09;73.12;95821.50;5090217;28;20205;-76
2022/01/24 10:08:20;;;;;;;16.73;9.23;;;;;;;-1.10;74.50;95825.81;5083765;28;20204;-76
2022/01/24 10:10:52;;;;;;;16.63;9.13;;;;;;;-0.73;73.43;95822.03;5083515;28;20232;-76
2022/01/24 10:16:28;;;;;;;20.07;10.53;;;;;;;-0.25;72.48;95812.22;5071493;28;20251;-78
2022/01/24 10:19:02;;;;;;;17.57;9.80;;;;;;;-0.20;69.31;95822.03;5081020;28;20273;-78
2022/01/24 10:21:30;;;;;;;16.97;9.90;;;;;;;-0.25;70.09;95811.38;5090336;28;20201;-79
2022/01/24 10:23:58;;;;;;;19.17;10.27;;;;;;;-0.71;70.83;95809.13;5085960;28;20197;-79
2022/01/24 10:26:28;;;;;;;19.77;10.83;;;;;;;-0.90;72.77;95812.34;5087463;28;20291;-82
2022/01/24 10:28:55;;;;;;;17.23;9.93;;;;;;;-0.90;73.30;95806.41;5088424;28;20224;-78
2022/01/24 10:31:25;;;;;;;19.17;10.80;;;;;;;-0.61;73.22;95813.38;5083151;28;20221;-84
2022/01/24 10:34:01;;;;;;;19.13;10.43;;;;;;;0.18;71.75;95816.38;5085893;28;20224;-75
2022/01/24 10:36:35;;;;;;;18.90;10.07;;;;;;;0.90;66.39;95810.25;5087605;28;20207;-78
2022/01/24 10:39:31;;;;;;;38.93;16.70;;;;;;;1.78;64.90;95811.97;5095058;28;20192;-78
2022/01/24 10:42:37;;;;;;;23.27;12.50;;;;;;;3.89;61.69;95810.09;5092181;28;20200;-76
2022/01/24 10:45:13;;;;;;;15.40;8.80;;;;;;;4.83;51.78;95798.16;5093794;28;20686;-75
2022/01/24 10:47:46;;;;;;;14.23;9.43;;;;;;;4.64;49.69;95808.69;5089581;28;20207;-76
2022/01/24 10:50:21;;;;;;;10.87;7.23;;;;;;;3.41;50.74;95802.75;5085579;28;20216;-75
2022/01/24 10:52:50;;;;;;;11.50;6.73;;;;;;;2.41;51.85;95810.53;5091201;28;20204;-75
2022/01/24 10:55:20;;;;;;;8.90;6.20;;;;;;;1.69;53.48;95818.72;5093268;28;20291;-76
2022/01/24 10:57:53;;;;;;;14.00;7.03;;;;;;;1.17;55.60;95819.06;5092618;28;20207;-75
2022/01/24 11:00:24;;;;;;;14.60;8.03;;;;;;;1.23;57.32;95808.28;5092015;28;20192;-76
2022/01/24 11:02:54;;;;;;;11.70;7.33;;;;;;;2.15;53.83;95818.81;5092033;28;20684;-75
2022/01/24 11:05:24;;;;;;;12.17;7.03;;;;;;;2.95;52.56;95804.63;5079488;28;20624;-75
2022/01/24 11:07:57;;;;;;;11.37;6.87;;;;;;;4.09;48.31;95809.94;5092772;28;20609;-75
2022/01/24 11:10:28;;;;;;;9.83;6.50;;;;;;;4.09;44.89;95815.06;5092386;28;20647;-75
2022/01/24 11:12:58;;;;;;;14.13;8.23;;;;;;;3.51;46.27;95805.25;5092607;28;20598;-76
2022/01/24 11:15:28;;;;;;;11.60;6.80;;;;;;;3.46;45.65;95806.66;5092697;28;20235;-76
2022/01/24 11:17:58;;;;;;;10.87;6.77;;;;;;;3.65;46.55;95803.94;5092804;28;20683;-78
2022/01/24 11:20:30;;;;;;;14.90;8.23;;;;;;;4.31;44.40;95801.72;5086874;28;20204;-78
2022/01/24 11:23:01;;;;;;;14.60;8.53;;;;;;;4.26;43.16;95804.75;5086330;28;20200;-78
2022/01/24 11:25:31;;;;;;;10.47;6.73;;;;;;;4.23;42.34;95801.66;5092368;28;20246;-78
2022/01/24 11:28:02;;;;;;;10.63;6.07;;;;;;;4.71;41.38;95796.00;5092491;28;20216;-78
2022/01/24 11:30:36;;;;;;;12.87;7.40;;;;;;;5.47;40.85;95814.78;5086488;28;20208;-79
2022/01/24 11:33:08;;;;;;;12.43;7.00;;;;;;;5.96;40.11;95816.50;5085996;28;20201;-79
2022/01/24 11:35:40;;;;;;;10.50;6.40;;;;;;;5.67;40.24;95808.38;5091781;28;20197;-78
2022/01/24 11:38:30;;;;;;;13.70;7.70;;;;;;;6.22;38.67;95804.25;5085923;28;20273;-80
2022/01/24 11:41:01;;;;;;;10.23;6.77;;;;;;;6.12;37.60;95806.19;5085426;28;20210;-78
2022/01/24 11:43:35;;;;;;;10.50;6.40;;;;;;;6.03;36.66;95809.72;5092323;28;20202;-82
2022/01/24 11:46:07;;;;;;;8.97;6.13;;;;;;;5.76;36.78;95809.22;5084794;28;20197;-78
2022/01/24 11:48:36;;;;;;;9.50;6.27;;;;;;;4.51;38.03;95806.50;5090351;28;20204;-78
2022/01/24 11:51:07;;;;;;;11.17;6.30;;;;;;;3.40;40.36;95806.28;5091885;28;20600;-78
2022/01/24 11:53:41;;;;;;;11.30;6.83;;;;;;;2.74;42.16;95808.25;5091963;28;20717;-78
2022/01/24 11:56:22;;;;;;;13.10;6.80;;;;;;;1.20;45.91;95808.56;5092203;28;20207;-77
2022/01/24 11:58:52;;;;;;;10.13;6.20;;;;;;;0.87;47.51;95800.25;5091968;28;20225;-78
2022/01/24 12:01:37;;;;;;;10.73;6.60;;;;;;;0.69;48.63;95796.72;5092309;28;20207;-78
2022/01/24 12:04:05;;;;;;;10.70;6.53;;;;;;;0.84;49.22;95805.63;5081644;28;20196;-77
2022/01/24 12:07:04;;;;;;;18.00;6.70;;;;;;;0.65;49.97;95797.91;5071266;28;20198;-77
2022/01/24 12:09:32;;;;;;;12.27;7.60;;;;;;;0.59;49.78;95803.53;5091524;28;20212;-78
2022/01/24 12:11:59;;;;;;;13.10;7.37;;;;;;;0.54;50.17;95803.94;5091639;28;20218;-78
2022/01/24 12:14:39;;;;;;;10.90;6.57;;;;;;;0.97;48.64;95798.56;5091995;28;20244;-77
2022/01/24 12:17:10;;;;;;;8.87;6.43;;;;;;;2.09;45.07;95810.88;5092358;28;20214;-77
2022/01/24 12:19:38;;;;;;;9.57;6.30;;;;;;;2.63;43.94;95808.41;5085215;28;20210;-78
2022/01/24 12:22:34;;;;;;;11.30;7.23;;;;;;;1.66;44.81;95803.63;5089314;28;20683;-79
2022/01/24 12:25:03;;;;;;;10.13;6.47;;;;;;;0.67;46.40;95800.31;5085536;28;20240;-78
2022/01/24 12:27:31;;;;;;;9.63;5.97;;;;;;;0.05;50.73;95801.25;5090976;28;20240;-78
2022/01/24 12:30:00;;;;;;;13.23;7.13;;;;;;;-0.43;52.14;95810.34;5085894;28;20206;-78
2022/01/24 12:32:28;;;;;;;12.50;6.90;;;;;;;-0.34;51.82;95800.19;5091630;28;20703;-76
2022/01/24 12:34:57;;;;;;;11.47;7.20;;;;;;;0.20;51.36;95800.00;5084311;28;20289;-81
2022/01/24 12:37:29;;;;;;;13.63;6.73;;;;;;;0.75;50.65;95814.09;5091708;28;20217;-79
2022/01/24 12:40:00;;;;;;;10.90;6.87;;;;;;;1.39;48.84;95824.75;5084853;28;20232;-79
2022/01/24 12:42:49;;;;;;;10.77;7.03;;;;;;;2.25;46.56;95834.97;5090187;28;20633;-77
2022/01/24 12:48:11;;;;;;;11.10;6.67;;;;;;;2.50;46.05;95825.91;5088261;28;20207;-77
2022/01/24 12:50:43;;;;;;;13.80;7.57;;;;;;;2.28;45.50;95826.19;5084417;28;20232;-79
2022/01/24 12:53:14;;;;;;;11.50;7.97;;;;;;;1.43;47.24;95828.69;5091536;28;20298;-77